createdAt,value
2023-01-04T00:00:58.791Z,0.00
2023-01-04T00:01:58.783Z,0.00
2023-01-04T00:02:58.821Z,0.00
2023-01-04T00:03:58.783Z,0.00
2023-01-04T00:04:58.687Z,0.00
2023-01-04T00:05:58.675Z,0.00
2023-01-04T00:06:58.666Z,0.00
2023-01-04T00:07:58.653Z,0.00
2023-01-04T00:08:58.656Z,0.00
2023-01-04T00:09:58.624Z,0.00
2023-01-04T00:10:58.612Z,0.00
2023-01-04T00:11:58.610Z,0.00
2023-01-04T00:12:58.592Z,0.00
2023-01-04T00:13:58.587Z,0.00
2023-01-04T00:14:58.584Z,0.00
2023-01-04T00:16:05.387Z,0.00
2023-01-04T00:16:59.535Z,0.00
2023-01-04T00:17:58.535Z,0.00
2023-01-04T00:18:58.517Z,0.00
2023-01-04T00:19:58.501Z,0.00
2023-01-04T00:20:58.487Z,0.00
2023-01-04T00:21:58.469Z,0.00
2023-01-04T00:22:58.476Z,0.00
2023-01-04T00:23:58.451Z,0.00
2023-01-04T00:24:58.431Z,0.00
2023-01-04T00:25:58.424Z,0.00
2023-01-04T00:26:58.466Z,0.00
2023-01-04T00:27:58.403Z,0.00
2023-01-04T00:28:58.417Z,0.00
2023-01-04T00:29:58.364Z,0.00
2023-01-04T00:30:58.421Z,0.00
2023-01-04T00:31:58.341Z,0.00
2023-01-04T00:32:58.330Z,0.00
2023-01-04T00:33:58.318Z,0.00
2023-01-04T00:34:58.310Z,0.00
2023-01-04T00:35:58.294Z,0.00
2023-01-04T00:36:58.324Z,0.00
2023-01-04T00:37:58.289Z,0.00
2023-01-04T00:38:58.272Z,0.00
2023-01-04T00:39:58.261Z,0.00
2023-01-04T00:40:58.235Z,0.00
2023-01-04T00:42:00.050Z,0.00
2023-01-04T00:42:58.205Z,0.00
2023-01-04T00:43:58.221Z,0.00
2023-01-04T00:44:58.184Z,0.00
2023-01-04T00:45:58.190Z,0.00
2023-01-04T00:46:58.179Z,0.00
2023-01-04T00:47:58.155Z,0.00
2023-01-04T00:49:00.557Z,0.00
2023-01-04T00:49:58.108Z,0.00
2023-01-04T00:50:58.103Z,0.00
2023-01-04T00:51:58.127Z,0.00
2023-01-04T00:52:58.076Z,0.00
2023-01-04T00:53:58.088Z,0.00
2023-01-04T00:54:58.064Z,0.00
2023-01-04T00:55:58.036Z,0.00
2023-01-04T00:56:58.023Z,0.00
2023-01-04T00:57:58.014Z,0.00
2023-01-04T00:58:58.009Z,0.00
2023-01-04T00:59:57.982Z,0.00
2023-01-04T01:00:57.991Z,0.00
2023-01-04T01:01:58.110Z,0.00
2023-01-04T01:02:58.175Z,0.00
2023-01-04T01:03:58.143Z,0.00
2023-01-04T01:04:57.925Z,0.00
2023-01-04T01:05:57.901Z,0.00
2023-01-04T01:06:57.894Z,0.00
2023-01-04T01:07:57.873Z,0.00
2023-01-04T01:08:57.882Z,0.00
2023-01-04T01:09:57.857Z,0.00
2023-01-04T01:10:57.843Z,0.00
2023-01-04T01:11:57.832Z,0.00
2023-01-04T01:12:57.832Z,0.00
2023-01-04T01:13:57.848Z,0.00
2023-01-04T01:15:00.572Z,0.00
2023-01-04T01:15:57.852Z,0.00
2023-01-04T01:16:58.819Z,0.00
2023-01-04T01:17:57.750Z,0.00
2023-01-04T01:18:57.772Z,0.00
2023-01-04T01:19:57.723Z,0.00
2023-01-04T01:20:57.728Z,0.00
2023-01-04T01:21:57.956Z,0.00
2023-01-04T01:22:57.692Z,0.00
2023-01-04T01:23:57.681Z,0.00
2023-01-04T01:24:57.710Z,0.00
2023-01-04T01:25:57.657Z,0.00
2023-01-04T01:26:57.654Z,0.00
2023-01-04T01:27:57.622Z,0.00
2023-01-04T01:28:57.633Z,0.00
2023-01-04T01:29:57.608Z,0.00
2023-01-04T01:30:57.636Z,0.00
2023-01-04T01:31:57.678Z,0.00
2023-01-04T01:32:57.585Z,0.00
2023-01-04T01:33:57.579Z,0.00
2023-01-04T01:34:57.548Z,0.00
2023-01-04T01:35:57.518Z,0.00
2023-01-04T01:36:57.515Z,0.00
2023-01-04T01:37:57.500Z,0.00
2023-01-04T01:38:57.516Z,0.00
2023-01-04T01:39:57.474Z,0.00
2023-01-04T01:40:57.468Z,0.00
2023-01-04T01:41:57.469Z,0.00
2023-01-04T01:42:57.471Z,0.00
2023-01-04T01:43:57.463Z,0.00
2023-01-04T01:44:57.407Z,0.00
2023-01-04T01:45:57.457Z,0.00
2023-01-04T01:46:57.449Z,0.00
2023-01-04T01:47:57.369Z,0.00
2023-01-04T01:48:57.401Z,0.00
2023-01-04T01:49:57.336Z,0.00
2023-01-04T01:50:57.346Z,0.00
2023-01-04T01:51:57.315Z,0.00
2023-01-04T01:52:57.353Z,0.00
2023-01-04T01:53:57.305Z,0.00
2023-01-04T01:54:57.321Z,0.00
2023-01-04T01:55:57.273Z,0.00
2023-01-04T01:56:57.261Z,0.00
2023-01-04T01:57:57.235Z,0.00
2023-01-04T01:58:57.256Z,0.00
2023-01-04T01:59:57.208Z,0.00
2023-01-04T02:00:57.232Z,0.00
2023-01-04T02:01:57.329Z,0.00
2023-01-04T02:02:57.491Z,0.00
2023-01-04T02:03:57.232Z,0.00
2023-01-04T02:04:57.158Z,0.00
2023-01-04T02:05:57.144Z,0.00
2023-01-04T02:06:57.168Z,0.00
2023-01-04T02:07:57.129Z,0.00
2023-01-04T02:08:57.115Z,0.00
2023-01-04T02:09:57.090Z,0.00
2023-01-04T02:10:57.083Z,0.00
2023-01-04T02:11:57.065Z,0.00
2023-01-04T02:12:57.063Z,0.00
2023-01-04T02:13:57.057Z,0.00
2023-01-04T02:14:57.033Z,0.00
2023-01-04T02:15:57.047Z,0.00
2023-01-04T02:16:57.030Z,0.00
2023-01-04T02:17:56.995Z,0.00
2023-01-04T02:18:56.983Z,0.00
2023-01-04T02:19:56.960Z,0.00
2023-01-04T02:20:56.960Z,0.00
2023-01-04T02:21:56.941Z,0.00
2023-01-04T02:22:56.953Z,0.00
2023-01-04T02:23:56.921Z,0.00
2023-01-04T02:24:56.923Z,0.00
2023-01-04T02:25:56.882Z,0.00
2023-01-04T02:26:56.907Z,0.00
2023-01-04T02:27:56.868Z,0.00
2023-01-04T02:28:56.860Z,0.00
2023-01-04T02:29:56.828Z,0.00
2023-01-04T02:30:56.866Z,0.00
2023-01-04T02:31:56.950Z,0.00
2023-01-04T02:32:56.799Z,0.00
2023-01-04T02:33:56.803Z,0.00
2023-01-04T02:34:59.048Z,0.00
2023-01-04T02:35:56.772Z,0.00
2023-01-04T02:36:56.749Z,0.00
2023-01-04T02:37:56.733Z,0.00
2023-01-04T02:38:56.739Z,0.00
2023-01-04T02:39:56.732Z,0.00
2023-01-04T02:40:56.711Z,0.00
2023-01-04T02:41:56.680Z,0.00
2023-01-04T02:42:56.687Z,0.00
2023-01-04T02:43:56.717Z,0.00
2023-01-04T02:44:56.648Z,0.00
2023-01-04T02:45:56.629Z,0.00
2023-01-04T02:46:56.678Z,0.00
2023-01-04T02:47:56.608Z,0.00
2023-01-04T02:48:56.614Z,0.00
2023-01-04T02:50:00.717Z,0.00
2023-01-04T02:50:57.590Z,0.00
2023-01-04T02:51:56.569Z,0.00
2023-01-04T02:52:56.546Z,0.00
2023-01-04T02:53:56.551Z,0.00
2023-01-04T02:54:56.525Z,0.00
2023-01-04T02:55:56.531Z,0.00
2023-01-04T02:57:02.650Z,0.00
2023-01-04T02:57:57.467Z,0.00
2023-01-04T02:58:56.509Z,0.00
2023-01-04T02:59:56.452Z,0.00
2023-01-04T03:00:56.440Z,0.00
2023-01-04T03:01:56.540Z,0.00
2023-01-04T03:02:56.493Z,0.00
2023-01-04T03:03:56.482Z,0.00
2023-01-04T03:04:56.399Z,0.00
2023-01-04T03:05:56.375Z,0.00
2023-01-04T03:06:56.367Z,0.00
2023-01-04T03:07:56.365Z,0.00
2023-01-04T03:08:56.377Z,0.00
2023-01-04T03:09:56.328Z,0.00
2023-01-04T03:10:56.315Z,0.00
2023-01-04T03:11:56.330Z,0.00
2023-01-04T03:12:56.307Z,0.00
2023-01-04T03:13:56.309Z,0.00
2023-01-04T03:14:56.270Z,0.00
2023-01-04T03:15:56.286Z,0.00
2023-01-04T03:16:56.244Z,0.00
2023-01-04T03:17:56.238Z,0.00
2023-01-04T03:18:56.226Z,0.00
2023-01-04T03:19:56.209Z,0.00
2023-01-04T03:20:56.191Z,0.00
2023-01-04T03:21:56.166Z,0.00
2023-01-04T03:22:56.192Z,0.00
2023-01-04T03:23:56.164Z,0.00
2023-01-04T03:24:56.134Z,0.00
2023-01-04T03:25:56.113Z,0.00
2023-01-04T03:26:56.115Z,0.00
2023-01-04T03:27:56.103Z,0.00
2023-01-04T03:28:56.098Z,0.00
2023-01-04T03:29:56.080Z,0.00
2023-01-04T03:30:56.111Z,0.00
2023-01-04T03:31:56.184Z,0.00
2023-01-04T03:32:56.034Z,0.00
2023-01-04T03:33:56.040Z,0.00
2023-01-04T03:34:56.032Z,0.00
2023-01-04T03:35:55.991Z,0.00
2023-01-04T03:36:56.013Z,0.00
2023-01-04T03:37:55.972Z,0.00
2023-01-04T03:38:55.971Z,0.00
2023-01-04T03:39:55.944Z,0.00
2023-01-04T03:40:55.947Z,0.00
2023-01-04T03:41:55.926Z,0.00
2023-01-04T03:42:55.903Z,0.00
2023-01-04T03:43:55.919Z,0.00
2023-01-04T03:44:55.883Z,0.00
2023-01-04T03:45:55.879Z,0.00
2023-01-04T03:46:55.905Z,0.00
2023-01-04T03:47:55.847Z,0.00
2023-01-04T03:48:55.850Z,0.00
2023-01-04T03:49:55.818Z,0.00
2023-01-04T03:50:55.800Z,0.00
2023-01-04T03:51:55.787Z,0.00
2023-01-04T03:52:55.772Z,0.00
2023-01-04T03:53:55.786Z,0.00
2023-01-04T03:54:55.761Z,0.00
2023-01-04T03:55:55.753Z,0.00
2023-01-04T03:56:55.722Z,0.00
2023-01-04T03:57:55.712Z,0.00
2023-01-04T03:58:55.698Z,0.00
2023-01-04T03:59:55.681Z,0.00
2023-01-04T04:00:55.702Z,0.00
2023-01-04T04:01:55.717Z,0.00
2023-01-04T04:02:55.647Z,0.00
2023-01-04T04:03:55.736Z,0.00
2023-01-04T04:04:55.618Z,0.00
2023-01-04T04:05:55.623Z,0.00
2023-01-04T04:06:55.589Z,0.00
2023-01-04T04:07:55.593Z,0.00
2023-01-04T04:08:55.577Z,0.00
2023-01-04T04:09:55.574Z,0.00
2023-01-04T04:10:55.562Z,0.00
2023-01-04T04:11:55.536Z,0.00
2023-01-04T04:12:55.520Z,0.00
2023-01-04T04:13:55.511Z,0.00
2023-01-04T04:14:55.487Z,0.00
2023-01-04T04:15:55.501Z,0.00
2023-01-04T04:16:55.543Z,0.00
2023-01-04T04:17:55.465Z,0.00
2023-01-04T04:18:55.453Z,0.00
2023-01-04T04:19:55.426Z,0.00
2023-01-04T04:20:55.413Z,0.00
2023-01-04T04:21:55.436Z,0.00
2023-01-04T04:22:55.409Z,0.00
2023-01-04T04:23:55.393Z,0.00
2023-01-04T04:24:55.355Z,0.00
2023-01-04T04:25:55.396Z,0.00
2023-01-04T04:26:55.372Z,0.00
2023-01-04T04:27:55.328Z,0.00
2023-01-04T04:28:55.322Z,0.00
2023-01-04T04:29:55.320Z,0.00
2023-01-04T04:30:55.285Z,0.00
2023-01-04T04:31:55.376Z,0.00
2023-01-04T04:32:55.263Z,0.00
2023-01-04T04:33:55.262Z,0.00
2023-01-04T04:34:55.236Z,0.00
2023-01-04T04:35:55.214Z,0.00
2023-01-04T04:36:55.211Z,0.00
2023-01-04T04:37:55.188Z,0.00
2023-01-04T04:38:55.189Z,0.00
2023-01-04T04:39:55.190Z,0.00
2023-01-04T04:40:55.181Z,0.00
2023-01-04T04:41:55.143Z,0.00
2023-01-04T04:42:55.121Z,0.00
2023-01-04T04:43:55.136Z,0.00
2023-01-04T04:44:55.092Z,0.00
2023-01-04T04:45:55.136Z,0.00
2023-01-04T04:46:55.073Z,0.00
2023-01-04T04:47:55.082Z,0.00
2023-01-04T04:48:55.060Z,0.00
2023-01-04T04:49:55.107Z,0.00
2023-01-04T04:50:55.031Z,0.00
2023-01-04T04:51:55.020Z,0.00
2023-01-04T04:52:56.396Z,0.00
2023-01-04T04:53:55.001Z,0.00
2023-01-04T04:54:54.967Z,0.00
2023-01-04T04:55:54.968Z,0.00
2023-01-04T04:56:54.953Z,0.00
2023-01-04T04:57:54.956Z,0.00
2023-01-04T04:58:54.991Z,0.00
2023-01-04T04:59:54.916Z,0.00
2023-01-04T05:00:54.913Z,0.00
2023-01-04T05:01:55.156Z,0.00
2023-01-04T05:02:54.938Z,0.00
2023-01-04T05:03:54.878Z,0.00
2023-01-04T05:04:54.863Z,0.00
2023-01-04T05:05:54.839Z,0.00
2023-01-04T05:06:54.828Z,0.00
2023-01-04T05:07:54.810Z,0.00
2023-01-04T05:08:54.809Z,0.00
2023-01-04T05:09:54.787Z,0.00
2023-01-04T05:10:54.773Z,0.00
2023-01-04T05:11:54.759Z,0.00
2023-01-04T05:12:57.924Z,0.00
2023-01-04T05:13:54.749Z,0.00
2023-01-04T05:14:54.716Z,0.00
2023-01-04T05:15:54.708Z,0.00
2023-01-04T05:16:54.771Z,0.00
2023-01-04T05:17:54.687Z,0.00
2023-01-04T05:18:54.704Z,0.00
2023-01-04T05:19:54.672Z,0.00
2023-01-04T05:20:54.643Z,0.00
2023-01-04T05:21:54.625Z,0.00
2023-01-04T05:22:54.631Z,0.00
2023-01-04T05:23:54.629Z,0.00
2023-01-04T05:24:54.597Z,0.00
2023-01-04T05:25:54.585Z,4.00
2023-01-04T05:26:54.556Z,4.00
2023-01-04T05:27:54.562Z,0.00
2023-01-04T05:28:54.598Z,0.00
2023-01-04T05:29:54.541Z,0.00
2023-01-04T05:30:54.528Z,0.00
2023-01-04T05:31:54.569Z,0.00
2023-01-04T05:32:54.471Z,0.00
2023-01-04T05:33:54.498Z,0.00
2023-01-04T05:34:54.461Z,0.00
2023-01-04T05:35:54.449Z,0.00
2023-01-04T05:36:54.433Z,0.00
2023-01-04T05:37:54.424Z,0.00
2023-01-04T05:38:54.415Z,0.00
2023-01-04T05:39:54.390Z,0.00
2023-01-04T05:40:54.393Z,0.00
2023-01-04T05:41:54.365Z,0.00
2023-01-04T05:42:54.351Z,0.00
2023-01-04T05:43:54.350Z,0.00
2023-01-04T05:44:54.321Z,0.00
2023-01-04T05:45:54.444Z,0.00
2023-01-04T05:46:54.299Z,0.00
2023-01-04T05:47:54.291Z,0.00
2023-01-04T05:48:54.285Z,0.00
2023-01-04T05:49:54.280Z,0.00
2023-01-04T05:50:54.271Z,0.00
2023-01-04T05:51:54.239Z,0.00
2023-01-04T05:52:54.221Z,0.00
2023-01-04T05:53:54.220Z,0.00
2023-01-04T05:54:54.203Z,0.00
2023-01-04T05:55:54.180Z,0.00
2023-01-04T05:56:54.184Z,0.00
2023-01-04T05:57:54.165Z,0.00
2023-01-04T05:58:54.157Z,0.00
2023-01-04T05:59:54.137Z,0.00
2023-01-04T06:00:54.122Z,0.00
2023-01-04T06:01:54.200Z,0.00
2023-01-04T06:02:54.148Z,0.00
2023-01-04T06:03:54.174Z,0.00
2023-01-04T06:04:58.679Z,0.00
2023-01-04T06:05:55.072Z,0.00
2023-01-04T06:06:54.028Z,0.00
2023-01-04T06:07:54.029Z,0.00
2023-01-04T06:08:54.020Z,0.00
2023-01-04T06:09:54.015Z,0.00
2023-01-04T06:10:53.978Z,0.00
2023-01-04T06:11:53.968Z,0.00
2023-01-04T06:12:53.945Z,0.00
2023-01-04T06:13:53.957Z,0.00
2023-01-04T06:14:53.937Z,0.00
2023-01-04T06:15:53.922Z,0.00
2023-01-04T06:16:53.943Z,0.00
2023-01-04T06:17:53.894Z,0.00
2023-01-04T06:18:53.895Z,0.00
2023-01-04T06:19:53.868Z,0.00
2023-01-04T06:20:53.866Z,0.00
2023-01-04T06:21:53.844Z,0.00
2023-01-04T06:22:53.815Z,0.00
2023-01-04T06:23:53.827Z,0.00
2023-01-04T06:24:53.810Z,0.00
2023-01-04T06:25:53.792Z,0.00
2023-01-04T06:26:53.774Z,0.00
2023-01-04T06:27:53.763Z,0.00
2023-01-04T06:28:53.764Z,0.00
2023-01-04T06:29:53.740Z,0.00
2023-01-04T06:30:53.762Z,0.00
2023-01-04T06:31:53.716Z,0.00
2023-01-04T06:32:53.699Z,0.00
2023-01-04T06:33:53.704Z,0.00
2023-01-04T06:34:53.673Z,0.00
2023-01-04T06:35:53.653Z,0.00
2023-01-04T06:36:53.637Z,0.00
2023-01-04T06:37:53.628Z,0.00
2023-01-04T06:38:53.641Z,0.00
2023-01-04T06:39:53.623Z,0.00
2023-01-04T06:40:53.595Z,0.00
2023-01-04T06:41:53.584Z,0.00
2023-01-04T06:42:53.560Z,0.00
2023-01-04T06:43:53.565Z,0.00
2023-01-04T06:44:53.532Z,0.00
2023-01-04T06:45:53.560Z,0.00
2023-01-04T06:46:53.510Z,4.00
2023-01-04T06:47:53.504Z,0.00
2023-01-04T06:48:53.511Z,0.00
2023-01-04T06:49:53.478Z,0.00
2023-01-04T06:50:53.465Z,0.00
2023-01-04T06:51:53.444Z,4.00
2023-01-04T06:52:53.436Z,4.00
2023-01-04T06:53:53.426Z,0.00
2023-01-04T06:54:53.441Z,0.00
2023-01-04T06:55:53.406Z,0.00
2023-01-04T06:56:53.389Z,4.00
2023-01-04T06:57:59.226Z,4.00
2023-01-04T06:58:54.367Z,4.00
2023-01-04T06:59:53.338Z,0.00
2023-01-04T07:00:53.381Z,4.00
2023-01-04T07:01:53.497Z,4.00
2023-01-04T07:03:14.072Z,4.00
2023-01-04T07:03:54.417Z,4.00
2023-01-04T07:04:53.342Z,4.00
2023-01-04T07:05:53.273Z,4.00
2023-01-04T07:06:53.240Z,4.00
2023-01-04T07:07:53.227Z,4.00
2023-01-04T07:08:53.232Z,8.00
2023-01-04T07:09:53.206Z,8.00
2023-01-04T07:10:53.187Z,4.00
2023-01-04T07:11:53.192Z,8.00
2023-01-04T07:12:53.167Z,8.00
2023-01-04T07:13:53.187Z,12.00
2023-01-04T07:14:53.147Z,12.00
2023-01-04T07:15:53.163Z,12.00
2023-01-04T07:16:53.106Z,12.00
2023-01-04T07:17:53.114Z,16.00
2023-01-04T07:18:53.115Z,16.00
2023-01-04T07:19:53.088Z,16.00
2023-01-04T07:20:53.063Z,20.00
2023-01-04T07:21:53.064Z,20.00
2023-01-04T07:22:53.035Z,20.00
2023-01-04T07:23:53.037Z,24.00
2023-01-04T07:24:53.008Z,24.00
2023-01-04T07:25:52.998Z,20.00
2023-01-04T07:26:52.991Z,20.00
2023-01-04T07:27:52.992Z,20.00
2023-01-04T07:28:52.968Z,20.00
2023-01-04T07:29:52.955Z,20.00
2023-01-04T07:30:53.011Z,20.00
2023-01-04T07:31:52.922Z,24.00
2023-01-04T07:32:53.001Z,24.00
2023-01-04T07:33:53.643Z,24.00
2023-01-04T07:34:52.879Z,28.00
2023-01-04T07:35:52.864Z,28.00
2023-01-04T07:36:52.886Z,28.00
2023-01-04T07:37:58.304Z,32.00
2023-01-04T07:38:53.842Z,36.00
2023-01-04T07:39:52.832Z,32.00
2023-01-04T07:40:56.716Z,36.00
2023-01-04T07:41:52.806Z,36.00
2023-01-04T07:42:52.784Z,44.00
2023-01-04T07:43:52.775Z,48.00
2023-01-04T07:44:52.747Z,48.00
2023-01-04T07:45:52.771Z,48.00
2023-01-04T07:46:52.780Z,56.00
2023-01-04T07:47:52.715Z,56.00
2023-01-04T07:48:52.716Z,56.00
2023-01-04T07:49:52.681Z,60.00
2023-01-04T07:50:52.673Z,64.00
2023-01-04T07:51:52.676Z,64.00
2023-01-04T07:52:52.654Z,72.00
2023-01-04T07:53:52.637Z,72.00
2023-01-04T07:54:52.621Z,76.00
2023-01-04T07:55:52.598Z,76.00
2023-01-04T07:56:52.601Z,76.00
2023-01-04T07:57:52.581Z,72.00
2023-01-04T07:58:52.582Z,72.00
2023-01-04T07:59:52.542Z,68.00
2023-01-04T08:00:52.542Z,64.00
2023-01-04T08:01:52.621Z,64.00
2023-01-04T08:02:52.636Z,64.00
2023-01-04T08:03:52.511Z,64.00
2023-01-04T08:04:52.554Z,64.00
2023-01-04T08:05:52.482Z,68.00
2023-01-04T08:06:52.463Z,68.00
2023-01-04T08:07:52.460Z,72.00
2023-01-04T08:08:52.449Z,72.00
2023-01-04T08:09:52.407Z,80.00
2023-01-04T08:10:52.408Z,80.00
2023-01-04T08:11:52.399Z,84.00
2023-01-04T08:12:52.383Z,88.00
2023-01-04T08:13:52.403Z,88.00
2023-01-04T08:14:52.366Z,92.00
2023-01-04T08:15:52.399Z,100.00
2023-01-04T08:16:52.330Z,108.00
2023-01-04T08:17:52.316Z,120.00
2023-01-04T08:18:52.324Z,128.00
2023-01-04T08:19:52.297Z,132.00
2023-01-04T08:20:58.358Z,144.00
2023-01-04T08:21:53.266Z,148.00
2023-01-04T08:22:52.278Z,152.00
2023-01-04T08:23:52.264Z,156.00
2023-01-04T08:24:52.235Z,156.00
2023-01-04T08:25:52.207Z,156.00
2023-01-04T08:26:52.209Z,148.00
2023-01-04T08:27:52.178Z,148.00
2023-01-04T08:28:52.228Z,148.00
2023-01-04T08:29:52.176Z,148.00
2023-01-04T08:30:52.191Z,148.00
2023-01-04T08:31:52.214Z,152.00
2023-01-04T08:32:52.135Z,156.00
2023-01-04T08:33:52.114Z,148.00
2023-01-04T08:34:52.102Z,152.00
2023-01-04T08:35:52.081Z,156.00
2023-01-04T08:36:52.075Z,168.00
2023-01-04T08:37:52.053Z,168.00
2023-01-04T08:39:01.099Z,172.00
2023-01-04T08:39:53.053Z,168.00
2023-01-04T08:40:58.610Z,160.00
2023-01-04T08:42:19.428Z,156.00
2023-01-04T08:42:53.004Z,144.00
2023-01-04T08:43:51.982Z,128.00
2023-01-04T08:44:57.121Z,124.00
2023-01-04T08:45:52.960Z,116.00
2023-01-04T08:46:51.989Z,116.00
2023-01-04T08:47:51.923Z,116.00
2023-01-04T08:48:51.936Z,124.00
2023-01-04T08:49:51.894Z,136.00
2023-01-04T08:50:51.898Z,160.00
2023-01-04T08:51:51.879Z,188.00
2023-01-04T08:52:51.888Z,212.00
2023-01-04T08:53:51.884Z,232.00
2023-01-04T08:54:51.839Z,244.00
2023-01-04T08:55:51.826Z,260.00
2023-01-04T08:56:51.813Z,272.00
2023-01-04T08:57:51.796Z,280.00
2023-01-04T08:58:51.803Z,296.00
2023-01-04T08:59:51.781Z,304.00
2023-01-04T09:00:51.761Z,320.00
2023-01-04T09:01:51.934Z,324.00
2023-01-04T09:02:51.989Z,324.00
2023-01-04T09:03:51.731Z,304.00
2023-01-04T09:04:51.820Z,280.00
2023-01-04T09:05:51.693Z,256.00
2023-01-04T09:06:51.754Z,244.00
2023-01-04T09:07:51.699Z,236.00
2023-01-04T09:08:51.677Z,228.00
2023-01-04T09:09:51.650Z,216.00
2023-01-04T09:10:51.629Z,196.00
2023-01-04T09:11:51.621Z,180.00
2023-01-04T09:12:51.619Z,164.00
2023-01-04T09:13:51.639Z,148.00
2023-01-04T09:14:51.581Z,144.00
2023-01-04T09:15:51.625Z,140.00
2023-01-04T09:16:51.559Z,140.00
2023-01-04T09:18:29.428Z,140.00
2023-01-04T09:18:52.546Z,148.00
2023-01-04T09:19:51.507Z,156.00
2023-01-04T09:20:51.507Z,168.00
2023-01-04T09:21:51.535Z,172.00
2023-01-04T09:22:51.490Z,192.00
2023-01-04T09:23:51.480Z,204.00
2023-01-04T09:24:51.463Z,208.00
2023-01-04T09:25:51.438Z,204.00
2023-01-04T09:26:51.459Z,204.00
2023-01-04T09:27:51.425Z,196.00
2023-01-04T09:28:51.414Z,188.00
2023-01-04T09:29:51.382Z,184.00
2023-01-04T09:30:51.374Z,180.00
2023-01-04T09:31:51.385Z,188.00
2023-01-04T09:32:51.346Z,196.00
2023-01-04T09:34:52.315Z,224.00
2023-01-04T09:35:51.330Z,228.00
2023-01-04T09:36:51.344Z,244.00
2023-01-04T09:37:51.272Z,256.00
2023-01-04T09:38:51.294Z,252.00
2023-01-04T09:39:51.256Z,256.00
2023-01-04T09:40:51.241Z,260.00
2023-01-04T09:41:51.248Z,256.00
2023-01-04T09:42:51.228Z,256.00
2023-01-04T09:43:52.247Z,256.00
2023-01-04T09:45:52.189Z,228.00
2023-01-04T09:46:51.236Z,216.00
2023-01-04T09:47:51.147Z,204.00
2023-01-04T09:48:51.174Z,204.00
2023-01-04T09:49:51.125Z,212.00
2023-01-04T09:50:51.114Z,212.00
2023-01-04T09:51:51.103Z,212.00
2023-01-04T09:52:51.089Z,220.00
2023-01-04T09:53:51.103Z,216.00
2023-01-04T09:54:51.095Z,208.00
2023-01-04T09:55:51.047Z,204.00
2023-01-04T09:56:51.033Z,204.00
2023-01-04T09:57:51.033Z,200.00
2023-01-04T09:58:51.022Z,196.00
2023-01-04T09:59:51.010Z,196.00
2023-01-04T10:00:51.085Z,196.00
2023-01-04T10:01:51.168Z,196.00
2023-01-04T10:02:51.047Z,212.00
2023-01-04T10:03:51.036Z,224.00
2023-01-04T10:04:50.938Z,228.00
2023-01-04T10:05:50.928Z,228.00
2023-01-04T10:06:50.920Z,236.00
2023-01-04T10:07:50.895Z,244.00
2023-01-04T10:08:50.893Z,244.00
2023-01-04T10:09:50.880Z,240.00
2023-01-04T10:10:50.878Z,244.00
2023-01-04T10:11:50.847Z,240.00
2023-01-04T10:12:54.014Z,236.00
2023-01-04T10:13:51.830Z,244.00
2023-01-04T10:14:50.799Z,256.00
2023-01-04T10:15:50.860Z,284.00
2023-01-04T10:21:51.754Z,284.00
2023-01-04T10:22:50.719Z,316.00
2023-01-04T10:23:50.688Z,320.00
2023-01-04T10:24:50.719Z,328.00
2023-01-04T10:25:50.659Z,356.00
2023-01-04T10:26:50.646Z,372.00
2023-01-04T10:27:50.637Z,376.00
2023-01-04T10:28:50.661Z,352.00
2023-01-04T10:29:50.616Z,312.00
2023-01-04T10:30:50.602Z,304.00
2023-01-04T10:31:50.630Z,296.00
2023-01-04T10:32:50.574Z,288.00
2023-01-04T10:33:50.571Z,288.00
2023-01-04T10:34:50.557Z,284.00
2023-01-04T10:35:50.517Z,296.00
2023-01-04T10:36:50.531Z,292.00
2023-01-04T10:37:50.515Z,276.00
2023-01-04T10:38:50.505Z,256.00
2023-01-04T10:39:50.485Z,244.00
2023-01-04T10:40:50.511Z,228.00
2023-01-04T10:41:50.468Z,216.00
2023-01-04T10:42:50.439Z,216.00
2023-01-04T10:44:12.047Z,216.00
2023-01-04T10:44:51.406Z,216.00
2023-01-04T10:45:50.440Z,220.00
2023-01-04T10:46:50.480Z,228.00
2023-01-04T10:47:50.370Z,228.00
2023-01-04T10:48:50.372Z,228.00
2023-01-04T10:49:50.358Z,232.00
2023-01-04T10:50:50.335Z,236.00
2023-01-04T10:51:50.327Z,244.00
2023-01-04T10:52:50.350Z,248.00
2023-01-04T10:53:50.304Z,252.00
2023-01-04T10:54:50.277Z,252.00
2023-01-04T10:56:24.928Z,256.00
2023-01-04T10:56:51.250Z,276.00
2023-01-04T10:57:50.245Z,296.00
2023-01-04T10:58:50.241Z,312.00
2023-01-04T10:59:50.217Z,312.00
2023-01-04T11:00:50.198Z,324.00
2023-01-04T11:01:50.405Z,316.00
2023-01-04T11:02:50.375Z,308.00
2023-01-04T11:03:50.244Z,292.00
2023-01-04T11:04:50.169Z,292.00
2023-01-04T11:05:50.131Z,300.00
2023-01-04T11:06:50.128Z,300.00
2023-01-04T11:07:50.114Z,312.00
2023-01-04T11:08:50.104Z,320.00
2023-01-04T11:09:50.107Z,308.00
2023-01-04T11:10:50.069Z,292.00
2023-01-04T11:11:50.066Z,280.00
2023-01-04T11:12:50.141Z,280.00
2023-01-04T11:13:50.060Z,280.00
2023-01-04T11:14:50.017Z,288.00
2023-01-04T11:15:50.053Z,284.00
2023-01-04T11:16:50.061Z,280.00
2023-01-04T11:17:49.982Z,280.00
2023-01-04T11:18:49.982Z,268.00
2023-01-04T11:19:49.957Z,248.00
2023-01-04T11:20:49.941Z,228.00
2023-01-04T11:21:49.926Z,224.00
2023-01-04T11:22:50.053Z,236.00
2023-01-04T11:23:49.942Z,248.00
2023-01-04T11:25:32.494Z,256.00
2023-01-04T11:25:55.770Z,252.00
2023-01-04T11:26:50.863Z,260.00
2023-01-04T11:27:49.848Z,280.00
2023-01-04T11:28:49.842Z,284.00
2023-01-04T11:29:49.817Z,288.00
2023-01-04T11:30:49.831Z,272.00
2023-01-04T11:31:49.976Z,252.00
2023-01-04T11:32:49.838Z,256.00
2023-01-04T11:33:49.786Z,256.00
2023-01-04T11:34:49.807Z,252.00
2023-01-04T11:35:49.760Z,224.00
2023-01-04T11:36:49.733Z,236.00
2023-01-04T11:37:49.725Z,252.00
2023-01-04T11:38:49.719Z,260.00
2023-01-04T11:39:49.686Z,252.00
2023-01-04T11:40:49.701Z,236.00
2023-01-04T11:41:49.663Z,252.00
2023-01-04T11:42:49.707Z,256.00
2023-01-04T11:43:49.686Z,232.00
2023-01-04T11:44:49.627Z,200.00
2023-01-04T11:45:49.661Z,172.00
2023-01-04T11:46:49.635Z,156.00
2023-01-04T11:47:49.607Z,144.00
2023-01-04T11:48:49.591Z,140.00
2023-01-04T11:49:49.559Z,132.00
2023-01-04T11:50:49.548Z,132.00
2023-01-04T11:51:49.547Z,156.00
2023-01-04T11:52:49.550Z,160.00
2023-01-04T11:53:49.526Z,172.00
2023-01-04T11:54:49.484Z,172.00
2023-01-04T11:55:49.485Z,164.00
2023-01-04T11:56:49.467Z,164.00
2023-01-04T11:57:49.463Z,168.00
2023-01-04T11:58:49.477Z,172.00
2023-01-04T11:59:49.439Z,168.00
2023-01-04T12:00:49.430Z,160.00
2023-01-04T12:01:49.439Z,160.00
2023-01-04T12:03:04.970Z,164.00
2023-01-04T12:03:50.407Z,172.00
2023-01-04T12:04:49.374Z,184.00
2023-01-04T12:05:49.503Z,184.00
2023-01-04T12:06:49.340Z,192.00
2023-01-04T12:07:49.332Z,216.00
2023-01-04T12:08:49.336Z,228.00
2023-01-04T12:09:49.292Z,240.00
2023-01-04T12:10:49.335Z,240.00
2023-01-04T12:11:49.275Z,232.00
2023-01-04T12:12:49.256Z,212.00
2023-01-04T12:13:49.265Z,204.00
2023-01-04T12:14:49.228Z,228.00
2023-01-04T12:15:49.346Z,232.00
2023-01-04T12:16:49.213Z,216.00
2023-01-04T12:17:49.236Z,208.00
2023-01-04T12:18:49.193Z,196.00
2023-01-04T12:19:49.172Z,208.00
2023-01-04T12:20:49.167Z,212.00
2023-01-04T12:21:49.158Z,208.00
2023-01-04T12:22:49.128Z,208.00
2023-01-04T12:23:49.165Z,212.00
2023-01-04T12:24:49.101Z,216.00
2023-01-04T12:25:49.089Z,248.00
2023-01-04T12:26:49.083Z,260.00
2023-01-04T12:27:49.072Z,280.00
2023-01-04T12:28:49.083Z,292.00
2023-01-04T12:29:49.066Z,340.00
2023-01-04T12:30:49.031Z,376.00
2023-01-04T12:31:49.013Z,392.00
2023-01-04T12:32:49.004Z,400.00
2023-01-04T12:33:49.001Z,404.00
2023-01-04T12:34:48.970Z,408.00
2023-01-04T12:35:48.969Z,412.00
2023-01-04T12:36:48.939Z,412.00
2023-01-04T12:37:48.941Z,428.00
2023-01-04T12:38:48.930Z,452.00
2023-01-04T12:39:48.902Z,472.00
2023-01-04T12:40:48.887Z,488.00
2023-01-04T12:41:48.888Z,492.00
2023-01-04T12:42:48.864Z,484.00
2023-01-04T12:43:48.890Z,468.00
2023-01-04T12:44:48.846Z,468.00
2023-01-04T12:45:48.873Z,452.00
2023-01-04T12:46:48.821Z,448.00
2023-01-04T12:47:48.811Z,452.00
2023-01-04T12:48:48.815Z,468.00
2023-01-04T12:49:48.797Z,484.00
2023-01-04T12:51:04.220Z,480.00
2023-01-04T12:52:20.421Z,480.00
2023-01-04T12:53:49.758Z,476.00
2023-01-04T12:54:48.706Z,468.00
2023-01-04T12:55:48.706Z,424.00
2023-01-04T12:56:48.687Z,392.00
2023-01-04T12:57:48.679Z,376.00
2023-01-04T12:59:24.274Z,356.00
2023-01-04T12:59:49.645Z,336.00
2023-01-04T13:00:48.646Z,304.00
2023-01-04T13:01:48.759Z,288.00
2023-01-04T13:02:48.940Z,280.00
2023-01-04T13:03:48.914Z,296.00
2023-01-04T13:04:48.580Z,304.00
2023-01-04T13:05:57.247Z,308.00